Time,TemperatureF,DewpointF,PressureIn,WindDirection,WindDirectionDegrees,WindSpeedMPH,WindSpeedGustMPH,Humidity,HourlyPrecipIn,Conditions,Clouds,dailyrainin,SoftwareType,DateUTC
2013-05-21 00:02:00,58.1,50.6,30.06,NE,39,6.9,6.9,76,0.00,CLR,,0.00,WeatherDisplay:10.37,2013-05-20 22:02:00,
2013-05-21 00:07:00,57.9,50.4,30.06,North,4,5.8,5.8,76,0.00,CLR,,0.00,WeatherDisplay:10.37,2013-05-20 22:07:00,
2013-05-21 00:12:00,57.7,50.5,30.06,NNE,18,6.9,6.9,77,0.00,CLR,,0.00,WeatherDisplay:10.37,2013-05-20 22:12:00,
2013-05-21 00:17:00,57.6,50.4,30.05,NNE,12,8.1,8.1,77,0.00,CLR,,0.00,WeatherDisplay:10.37,2013-05-20 22:17:00,
2013-05-21 00:22:00,57.5,50.3,30.05,North,9,8.1,8.1,77,0.00,CLR,,0.00,WeatherDisplay:10.37,2013-05-20 22:22:00,
2013-05-21 00:27:00,57.4,50.2,30.05,North,4,9.2,9.2,77,0.00,CLR,,0.00,WeatherDisplay:10.37,2013-05-20 22:27:00,
2013-05-21 00:32:00,57.3,50.1,30.05,North,4,7.0,7.0,77,0.00,CLR,,0.00,WeatherDisplay:10.37,2013-05-20 22:32:00,
2013-05-21 00:37:00,57.1,50.0,30.05,NNE,16,8.1,8.1,77,0.00,CLR,,0.00,WeatherDisplay:10.37,2013-05-20 22:37:00,
2013-05-21 00:42:00,57.0,50.2,30.05,North,4,8.0,8.0,78,0.00,CLR,,0.00,WeatherDisplay:10.37,2013-05-20 22:42:00,
2013-05-21 00:47:00,56.9,50.1,30.05,North,349,8.1,8.1,78,0.00,CLR,,0.00,WeatherDisplay:10.37,2013-05-20 22:47:00,
2013-05-21 00:52:00,57.0,50.2,30.05,NNE,21,8.0,8.0,78,0.00,CLR,,0.00,WeatherDisplay:10.37,2013-05-20 22:52:00,
2013-05-21 00:57:00,57.2,50.1,30.04,NNE,20,6.9,6.9,77,0.00,CLR,,0.00,WeatherDisplay:10.37,2013-05-20 22:57:00,
2013-05-21 01:02:00,57.1,50.0,30.04,NNE,16,8.1,8.1,77,0.00,CLR,,0.00,WeatherDisplay:10.37,2013-05-20 23:02:00,
2013-05-21 01:07:00,57.1,49.6,30.04,NNE,21,7.0,7.0,76,0.00,CLR,,0.00,WeatherDisplay:10.37,2013-05-20 23:07:00,
2013-05-21 01:12:00,57.2,49.7,30.05,NNE,20,6.0,6.0,76,0.00,CLR,,0.00,WeatherDisplay:10.37,2013-05-20 23:12:00,
2013-05-21 01:17:00,57.3,49.8,30.05,NNE,22,6.9,6.9,76,0.00,CLR,,0.00,WeatherDisplay:10.37,2013-05-20 23:17:00,
2013-05-21 01:22:00,57.3,49.8,30.06,NNE,20,5.8,5.8,76,0.00,CLR,,0.00,WeatherDisplay:10.37,2013-05-20 23:22:00,
2013-05-21 01:27:00,57.3,49.4,30.05,NE,38,6.9,6.9,75,0.00,CLR,,0.00,WeatherDisplay:10.37,2013-05-20 23:27:00,
2013-05-21 01:32:00,57.5,49.6,30.06,NNE,33,6.9,6.9,75,0.00,CLR,,0.00,WeatherDisplay:10.37,2013-05-20 23:32:00,
2013-05-21 01:37:00,57.6,49.7,30.06,NE,47,6.9,6.9,75,0.00,CLR,,0.00,WeatherDisplay:10.37,2013-05-20 23:37:00,
2013-05-21 01:42:00,57.7,49.8,30.06,NE,39,6.9,6.9,75,0.00,CLR,,0.00,WeatherDisplay:10.37,2013-05-20 23:42:00,
2013-05-21 01:47:00,57.8,49.9,30.06,NE,40,5.8,5.8,75,0.00,CLR,,0.00,WeatherDisplay:10.37,2013-05-20 23:47:00,
2013-05-21 01:52:00,57.9,49.7,30.06,NNE,31,5.8,5.8,74,0.00,CLR,,0.00,WeatherDisplay:10.37,2013-05-20 23:52:00,
2013-05-21 01:57:00,57.9,49.7,30.06,NNE,27,4.6,4.6,74,0.00,CLR,,0.00,WeatherDisplay:10.37,2013-05-20 23:57:00,
2013-05-21 02:02:00,57.8,49.9,30.05,NNE,17,5.8,5.8,75,0.00,CLR,,0.00,WeatherDisplay:10.37,2013-05-21 00:02:00,
2013-05-21 02:07:00,57.7,49.8,30.05,North,4,5.8,5.8,75,0.00,CLR,,0.00,WeatherDisplay:10.37,2013-05-21 00:07:00,
2013-05-21 02:12:00,57.6,49.7,30.05,NE,43,5.0,5.0,75,0.00,CLR,,0.00,WeatherDisplay:10.37,2013-05-21 00:12:00,
2013-05-21 02:17:00,57.6,49.7,30.05,NE,48,6.9,6.9,75,0.00,CLR,,0.00,WeatherDisplay:10.37,2013-05-21 00:17:00,
2013-05-21 02:22:00,57.6,49.7,30.04,NNE,28,6.9,6.9,75,0.00,CLR,,0.00,WeatherDisplay:10.37,2013-05-21 00:22:00,
2013-05-21 02:27:00,57.4,49.5,30.05,NNE,12,6.0,6.0,75,0.00,CLR,,0.00,WeatherDisplay:10.37,2013-05-21 00:27:00,
2013-05-21 02:32:00,57.5,49.6,30.04,NE,37,6.9,6.9,75,0.00,CLR,,0.00,WeatherDisplay:10.37,2013-05-21 00:32:00,
2013-05-21 02:37:00,57.5,49.6,30.04,NE,34,8.1,8.1,75,0.00,CLR,,0.00,WeatherDisplay:10.37,2013-05-21 00:37:00,
2013-05-21 02:42:00,57.5,49.6,30.04,NNE,25,6.9,6.9,75,0.00,CLR,,0.00,WeatherDisplay:10.37,2013-05-21 00:42:00,
2013-05-21 02:47:00,57.4,49.5,30.03,North,4,8.1,8.1,75,0.00,CLR,,0.00,WeatherDisplay:10.37,2013-05-21 00:47:00,
2013-05-21 02:52:00,57.3,49.4,30.03,NE,35,8.1,8.1,75,0.00,CLR,,0.00,WeatherDisplay:10.37,2013-05-21 00:52:00,
2013-05-21 02:57:00,57.1,49.6,30.03,NNE,12,8.1,8.1,76,0.00,CLR,,0.00,WeatherDisplay:10.37,2013-05-21 00:57:00,
2013-05-21 03:02:00,57.0,49.5,30.02,NE,37,8.1,8.1,76,0.00,CLR,,0.00,WeatherDisplay:10.37,2013-05-21 01:02:00,
2013-05-21 03:07:00,57.2,49.7,30.02,NNE,33,8.1,8.1,76,0.00,CLR,,0.00,WeatherDisplay:10.37,2013-05-21 01:07:00,
2013-05-21 03:12:00,57.3,49.4,30.02,NNE,33,6.9,6.9,75,0.00,CLR,,0.00,WeatherDisplay:10.37,2013-05-21 01:12:00,
2013-05-21 03:17:00,57.4,49.2,30.03,NE,52,5.8,5.8,74,0.00,CLR,,0.00,WeatherDisplay:10.37,2013-05-21 01:17:00,
2013-05-21 03:22:00,57.4,49.2,30.02,NE,52,8.0,8.0,74,0.00,CLR,,0.00,WeatherDisplay:10.37,2013-05-21 01:22:00,
2013-05-21 03:27:00,57.3,49.4,30.02,NE,39,10.4,10.4,75,0.00,CLR,,0.00,WeatherDisplay:10.37,2013-05-21 01:27:00,
2013-05-21 03:32:00,57.2,49.3,30.02,NE,45,10.4,10.4,75,0.00,CLR,,0.00,WeatherDisplay:10.37,2013-05-21 01:32:00,
2013-05-21 03:37:00,57.2,49.3,30.02,North,354,6.9,6.9,75,0.00,CLR,,0.00,WeatherDisplay:10.37,2013-05-21 01:37:00,
2013-05-21 03:42:00,57.2,49.3,30.02,NE,35,8.1,8.1,75,0.00,CLR,,0.00,WeatherDisplay:10.37,2013-05-21 01:42:00,
2013-05-21 03:47:00,57.2,49.3,30.02,NNE,25,8.1,8.1,75,0.00,CLR,,0.00,WeatherDisplay:10.37,2013-05-21 01:47:00,
2013-05-21 03:52:00,57.3,49.4,30.02,NE,41,9.2,9.2,75,0.00,CLR,,0.00,WeatherDisplay:10.37,2013-05-21 01:52:00,
2013-05-21 03:57:00,57.3,49.4,30.03,NE,53,7.0,7.0,75,0.00,CLR,,0.00,WeatherDisplay:10.37,2013-05-21 01:57:00,
2013-05-21 04:02:00,57.3,49.1,30.03,NE,55,8.1,8.1,74,0.00,CLR,,0.00,WeatherDisplay:10.37,2013-05-21 02:02:00,
2013-05-21 04:07:00,57.3,49.1,30.03,NE,54,10.4,10.4,74,0.00,CLR,,0.00,WeatherDisplay:10.37,2013-05-21 02:07:00,
2013-05-21 04:12:00,57.3,49.4,30.03,NE,45,11.5,11.5,75,0.00,CLR,,0.00,WeatherDisplay:10.37,2013-05-21 02:12:00,
2013-05-21 04:17:00,57.4,49.9,30.03,NE,48,10.4,10.4,76,0.00,CLR,,0.00,WeatherDisplay:10.37,2013-05-21 02:17:00,
2013-05-21 04:22:00,57.4,50.2,30.03,ENE,66,9.2,9.2,77,0.00,CLR,,0.00,WeatherDisplay:10.37,2013-05-21 02:22:00,
2013-05-21 04:27:00,57.2,50.1,30.03,NE,52,11.5,11.5,77,0.00,CLR,,0.00,WeatherDisplay:10.37,2013-05-21 02:27:00,
2013-05-21 04:32:00,57.0,49.9,30.02,NE,51,10.4,10.4,77,0.00,CLR,,0.00,WeatherDisplay:10.37,2013-05-21 02:32:00,
2013-05-21 04:37:00,57.0,50.2,30.02,NE,48,11.5,11.5,78,0.00,CLR,,0.00,WeatherDisplay:10.37,2013-05-21 02:37:00,
2013-05-21 04:42:00,57.0,50.2,30.01,NE,53,11.5,11.5,78,0.00,CLR,,0.00,WeatherDisplay:10.37,2013-05-21 02:42:00,
2013-05-21 04:47:00,57.1,50.3,30.01,NE,46,11.5,11.5,78,0.00,CLR,,0.00,WeatherDisplay:10.37,2013-05-21 02:47:00,
2013-05-21 04:52:00,56.9,50.1,30.00,ENE,62,12.7,12.7,78,0.00,CLR,,0.00,WeatherDisplay:10.37,2013-05-21 02:52:00,
2013-05-21 04:57:00,56.8,50.4,29.99,ENE,69,12.7,12.7,79,0.00,CLR,,0.00,WeatherDisplay:10.37,2013-05-21 02:57:00,
2013-05-21 05:02:00,56.8,50.7,29.99,ENE,69,11.5,11.5,80,0.00,CLR,,0.00,WeatherDisplay:10.37,2013-05-21 03:02:00,
2013-05-21 05:07:00,56.8,51.0,30.00,ENE,70,11.5,11.5,81,0.00,CLR,,0.00,WeatherDisplay:10.37,2013-05-21 03:07:00,
2013-05-21 05:12:00,56.7,50.9,29.99,NE,55,11.5,11.5,81,0.00,CLR,,0.00,WeatherDisplay:10.37,2013-05-21 03:12:00,
2013-05-21 05:17:00,56.7,50.9,29.98,NE,52,12.0,12.0,81,0.00,CLR,,0.00,WeatherDisplay:10.37,2013-05-21 03:17:00,
2013-05-21 05:22:00,56.9,51.1,29.98,NE,55,12.7,12.7,81,0.00,CLR,,0.00,WeatherDisplay:10.37,2013-05-21 03:22:00,
2013-05-21 05:27:00,57.2,51.1,29.98,NNE,15,13.8,13.8,80,0.00,CLR,,0.00,WeatherDisplay:10.37,2013-05-21 03:27:00,
2013-05-21 05:32:00,57.3,51.2,29.98,ENE,60,17.3,17.3,80,0.00,CLR,,0.00,WeatherDisplay:10.37,2013-05-21 03:32:00,
2013-05-21 05:37:00,57.3,51.5,29.97,NE,49,13.8,13.8,81,0.00,CLR,,0.00,WeatherDisplay:10.37,2013-05-21 03:37:00,
2013-05-21 05:42:00,57.3,51.5,29.97,NNE,29,13.8,13.8,81,0.00,CLR,,0.00,WeatherDisplay:10.37,2013-05-21 03:42:00,
2013-05-21 05:47:00,57.1,51.3,29.97,NE,42,12.7,12.7,81,0.00,CLR,,0.00,WeatherDisplay:10.37,2013-05-21 03:47:00,
2013-05-21 05:52:00,57.1,51.7,29.97,NNE,18,13.8,13.8,82,0.00,CLR,,0.00,WeatherDisplay:10.37,2013-05-21 03:52:00,
2013-05-21 05:57:00,57.0,51.6,29.97,NE,46,11.5,11.5,82,0.00,CLR,,0.00,WeatherDisplay:10.37,2013-05-21 03:57:00,
2013-05-21 06:01:00,57.0,51.6,29.97,ENE,59,12.7,12.7,82,0.00,CLR,,0.00,WeatherDisplay:10.37,2013-05-21 04:01:00,
2013-05-21 06:06:00,57.0,51.2,29.97,NNE,27,12.7,12.7,81,0.00,CLR,,0.00,WeatherDisplay:10.37,2013-05-21 04:06:00,
2013-05-21 06:11:00,57.0,51.2,29.97,NNE,21,12.7,12.7,81,0.00,CLR,,0.00,WeatherDisplay:10.37,2013-05-21 04:11:00,
2013-05-21 06:16:00,57.0,51.2,29.98,ENE,58,11.5,11.5,81,0.00,CLR,,0.00,WeatherDisplay:10.37,2013-05-21 04:16:00,
2013-05-21 06:21:00,56.9,51.1,29.99,NE,48,9.2,9.2,81,0.00,CLR,,0.00,WeatherDisplay:10.37,2013-05-21 04:21:00,
2013-05-21 06:26:00,56.8,51.0,30.00,ENE,60,4.6,4.6,81,0.00,CLR,,0.00,WeatherDisplay:10.37,2013-05-21 04:26:00,
2013-05-21 06:31:00,56.8,51.0,30.00,NE,51,6.0,6.0,81,0.00,CLR,,0.00,WeatherDisplay:10.37,2013-05-21 04:31:00,
2013-05-21 06:36:00,56.8,51.0,30.00,ENE,58,7.0,7.0,81,0.00,CLR,,0.00,WeatherDisplay:10.37,2013-05-21 04:36:00,
2013-05-21 06:41:00,56.7,50.9,29.99,NE,49,8.1,8.1,81,0.00,CLR,,0.00,WeatherDisplay:10.37,2013-05-21 04:41:00,
2013-05-21 06:46:00,56.7,50.6,29.99,ENE,60,8.1,8.1,80,0.00,CLR,,0.00,WeatherDisplay:10.37,2013-05-21 04:46:00,
2013-05-21 06:51:00,56.7,50.6,29.99,NE,41,11.5,11.5,80,0.00,CLR,,0.00,WeatherDisplay:10.37,2013-05-21 04:51:00,
2013-05-21 06:56:00,56.8,50.4,29.98,NE,39,9.2,9.2,79,0.00,CLR,,0.00,WeatherDisplay:10.37,2013-05-21 04:56:00,
2013-05-21 07:01:00,56.8,50.4,29.98,NE,49,11.5,11.5,79,0.00,CLR,,0.00,WeatherDisplay:10.37,2013-05-21 05:01:00,
2013-05-21 07:06:00,56.9,50.5,29.98,NE,55,13.8,13.8,79,0.00,CLR,,0.00,WeatherDisplay:10.37,2013-05-21 05:06:00,
2013-05-21 07:11:00,57.0,50.5,29.99,NE,46,11.5,11.5,79,0.00,CLR,,0.00,WeatherDisplay:10.37,2013-05-21 05:11:00,
2013-05-21 07:16:00,56.9,51.1,29.99,ENE,62,11.5,11.5,81,0.00,CLR,,0.00,WeatherDisplay:10.37,2013-05-21 05:16:00,
2013-05-21 07:21:00,57.0,51.2,29.99,ENE,64,12.0,12.0,81,0.00,CLR,,0.00,WeatherDisplay:10.37,2013-05-21 05:21:00,
2013-05-21 07:26:00,56.9,51.1,29.98,NE,39,13.8,13.8,81,0.00,CLR,,0.00,WeatherDisplay:10.37,2013-05-21 05:26:00,
2013-05-21 07:31:00,56.9,51.1,29.98,NE,52,17.3,17.3,81,0.00,CLR,,0.00,WeatherDisplay:10.37,2013-05-21 05:31:00,
2013-05-21 07:36:00,56.9,51.5,29.97,ENE,58,13.8,13.8,82,0.00,CLR,,0.00,WeatherDisplay:10.37,2013-05-21 05:36:00,
2013-05-21 07:41:00,56.9,51.5,29.97,NE,43,16.1,16.1,82,0.00,CLR,,0.00,WeatherDisplay:10.37,2013-05-21 05:41:00,
2013-05-21 07:46:00,56.9,51.5,29.96,ENE,65,18.4,18.4,82,0.00,CLR,,0.00,WeatherDisplay:10.37,2013-05-21 05:46:00,
2013-05-21 07:51:00,57.2,51.8,29.96,ENE,68,18.4,18.4,82,0.00,CLR,,0.00,WeatherDisplay:10.37,2013-05-21 05:51:00,
2013-05-21 07:56:00,57.4,51.9,29.97,East,79,17.0,17.0,82,0.00,CLR,,0.00,WeatherDisplay:10.37,2013-05-21 05:56:00,
2013-05-21 08:01:00,57.4,51.9,29.97,NE,39,11.5,11.5,82,0.00,CLR,,0.00,WeatherDisplay:10.37,2013-05-21 06:01:00,
2013-05-21 08:06:00,57.4,51.9,29.97,NE,43,16.1,16.1,82,0.00,CLR,,0.00,WeatherDisplay:10.37,2013-05-21 06:06:00,
2013-05-21 08:11:00,57.4,52.3,29.98,NE,56,15.0,15.0,83,0.00,CLR,,0.00,WeatherDisplay:10.37,2013-05-21 06:11:00,
2013-05-21 08:16:00,57.4,52.3,29.99,NE,35,11.5,11.5,83,0.00,CLR,,0.00,WeatherDisplay:10.37,2013-05-21 06:16:00,
2013-05-21 08:21:00,57.5,52.4,29.99,NNE,33,12.7,12.7,83,0.00,CLR,,0.00,WeatherDisplay:10.37,2013-05-21 06:21:00,
2013-05-21 08:26:00,57.6,52.5,29.99,NNE,22,11.5,11.5,83,0.00,CLR,,0.00,WeatherDisplay:10.37,2013-05-21 06:26:00,
2013-05-21 08:31:00,57.7,52.6,30.00,NE,40,10.0,10.0,83,0.00,CLR,,0.00,WeatherDisplay:10.37,2013-05-21 06:31:00,
2013-05-21 08:36:00,57.8,52.7,30.00,ENE,62,10.4,10.4,83,0.00,CLR,,0.00,WeatherDisplay:10.37,2013-05-21 06:36:00,
2013-05-21 08:41:00,57.9,52.8,30.00,ENE,65,10.4,10.4,83,0.00,CLR,,0.00,WeatherDisplay:10.37,2013-05-21 06:41:00,
2013-05-21 08:46:00,58.0,52.9,30.00,ENE,67,9.2,9.2,83,0.00,CLR,,0.00,WeatherDisplay:10.37,2013-05-21 06:46:00,
2013-05-21 08:51:00,58.0,52.9,30.00,ENE,58,9.2,9.2,83,0.00,CLR,,0.00,WeatherDisplay:10.37,2013-05-21 06:51:00,
2013-05-21 08:56:00,58.0,52.9,29.99,NE,46,11.5,11.5,83,0.00,CLR,,0.00,WeatherDisplay:10.37,2013-05-21 06:56:00,
2013-05-21 09:01:00,58.0,52.9,29.99,North,4,11.5,11.5,83,0.00,CLR,,0.00,WeatherDisplay:10.37,2013-05-21 07:01:00,
2013-05-21 09:06:00,58.1,53.0,29.99,ENE,75,15.0,15.0,83,0.00,CLR,,0.00,WeatherDisplay:10.37,2013-05-21 07:06:00,
2013-05-21 09:11:00,58.2,52.7,29.99,NE,48,16.1,16.1,82,0.00,CLR,,0.00,WeatherDisplay:10.37,2013-05-21 07:11:00,
2013-05-21 09:16:00,58.4,52.9,29.98,NE,34,12.7,12.7,82,0.00,CLR,,0.00,WeatherDisplay:10.37,2013-05-21 07:16:00,
2013-05-21 09:21:00,58.7,53.2,29.98,NE,39,13.8,13.8,82,0.00,CLR,,0.00,WeatherDisplay:10.37,2013-05-21 07:21:00,
2013-05-21 09:26:00,59.1,53.3,29.99,NE,48,18.4,18.4,81,0.00,CLR,,0.00,WeatherDisplay:10.37,2013-05-21 07:26:00,
2013-05-21 09:31:00,59.0,53.2,29.99,NE,36,16.1,16.1,81,0.00,CLR,,0.00,WeatherDisplay:10.37,2013-05-21 07:31:00,
2013-05-21 09:36:00,59.1,53.3,29.99,ENE,64,13.8,13.8,81,0.00,CLR,,0.00,WeatherDisplay:10.37,2013-05-21 07:36:00,
2013-05-21 09:41:00,59.0,52.8,29.99,ENE,69,13.8,13.8,80,0.00,CLR,,0.00,WeatherDisplay:10.37,2013-05-21 07:41:00,
2013-05-21 09:46:00,58.9,52.7,29.99,ENE,62,19.6,19.6,80,0.00,CLR,,0.00,WeatherDisplay:10.37,2013-05-21 07:46:00,
2013-05-21 09:51:00,58.8,52.3,29.98,ENE,71,21.9,21.9,79,0.00,CLR,,0.00,WeatherDisplay:10.37,2013-05-21 07:51:00,
2013-05-21 09:56:00,58.8,52.3,29.98,East,97,18.4,18.4,79,0.00,CLR,,0.00,WeatherDisplay:10.37,2013-05-21 07:56:00,
2013-05-21 10:01:00,58.8,52.3,29.99,ENE,62,15.0,15.0,79,0.00,CLR,,0.00,WeatherDisplay:10.37,2013-05-21 08:01:00,
2013-05-21 10:06:00,58.7,52.2,29.98,ENE,67,18.4,18.4,79,0.00,CLR,,0.00,WeatherDisplay:10.37,2013-05-21 08:06:00,
2013-05-21 10:11:00,58.7,52.2,29.98,ENE,58,16.1,16.1,79,0.00,CLR,,0.00,WeatherDisplay:10.37,2013-05-21 08:11:00,
2013-05-21 10:16:00,58.7,52.2,29.98,NE,52,17.3,17.3,79,0.00,CLR,,0.00,WeatherDisplay:10.37,2013-05-21 08:16:00,
2013-05-21 10:21:00,58.7,52.2,29.98,ENE,78,19.6,19.6,79,0.00,CLR,,0.00,WeatherDisplay:10.37,2013-05-21 08:21:00,
2013-05-21 10:26:00,58.6,52.4,29.98,NE,41,15.0,15.0,80,0.00,CLR,,0.00,WeatherDisplay:10.37,2013-05-21 08:26:00,
2013-05-21 10:31:00,58.6,52.4,29.98,East,96,16.1,16.1,80,0.00,CLR,,0.00,WeatherDisplay:10.37,2013-05-21 08:31:00,
2013-05-21 10:36:00,58.5,52.4,29.98,ENE,75,16.1,16.1,80,0.00,CLR,,0.00,WeatherDisplay:10.37,2013-05-21 08:36:00,
2013-05-21 10:41:00,58.6,52.4,29.98,NE,50,11.5,11.5,80,0.00,CLR,,0.00,WeatherDisplay:10.37,2013-05-21 08:41:00,
2013-05-21 10:46:00,58.6,52.4,29.97,NE,36,19.6,19.6,80,0.00,CLR,,0.00,WeatherDisplay:10.37,2013-05-21 08:46:00,
2013-05-21 10:51:00,58.6,52.4,29.98,ENE,58,16.1,16.1,80,0.00,CLR,,0.00,WeatherDisplay:10.37,2013-05-21 08:51:00,
2013-05-21 10:56:00,58.7,52.5,29.98,NE,46,16.1,16.1,80,0.00,CLR,,0.00,WeatherDisplay:10.37,2013-05-21 08:56:00,
2013-05-21 11:01:00,58.9,52.7,29.98,NE,52,19.6,19.6,80,0.00,CLR,,0.00,WeatherDisplay:10.37,2013-05-21 09:01:00,
2013-05-21 11:06:00,58.7,52.9,29.98,ENE,74,20.7,20.7,81,0.00,CLR,,0.00,WeatherDisplay:10.37,2013-05-21 09:06:00,
2013-05-21 11:11:00,58.6,53.1,29.98,ENE,70,19.6,19.6,82,0.00,CLR,,0.00,WeatherDisplay:10.37,2013-05-21 09:11:00,
2013-05-21 11:16:00,58.4,52.3,29.98,NNE,23,24.2,24.2,80,0.00,CLR,,0.00,WeatherDisplay:10.37,2013-05-21 09:16:00,
2013-05-21 11:21:00,58.5,52.4,29.98,North,10,19.6,19.6,80,0.00,CLR,,0.00,WeatherDisplay:10.37,2013-05-21 09:21:00,
2013-05-21 11:26:00,58.5,52.7,29.98,NE,48,13.0,13.0,81,0.00,CLR,,0.00,WeatherDisplay:10.37,2013-05-21 09:26:00,
2013-05-21 11:31:00,58.4,52.3,29.98,ENE,68,15.0,15.0,80,0.00,CLR,,0.00,WeatherDisplay:10.37,2013-05-21 09:31:00,
2013-05-21 11:36:00,58.5,52.0,29.97,ENE,61,19.6,19.6,79,0.00,CLR,,0.00,WeatherDisplay:10.37,2013-05-21 09:36:00,
2013-05-21 11:41:00,58.5,51.0,29.97,NE,46,19.6,19.6,76,0.00,CLR,,0.00,WeatherDisplay:10.37,2013-05-21 09:41:00,
2013-05-21 11:46:00,58.6,51.1,29.97,ENE,57,20.0,20.0,76,0.00,CLR,,0.00,WeatherDisplay:10.37,2013-05-21 09:46:00,
2013-05-21 11:51:00,58.7,51.2,29.97,ENE,70,18.4,18.4,76,0.00,CLR,,0.00,WeatherDisplay:10.37,2013-05-21 09:51:00,
2013-05-21 11:56:00,58.5,51.3,29.97,NE,42,20.7,20.7,77,0.00,CLR,,0.00,WeatherDisplay:10.37,2013-05-21 09:56:00,
2013-05-21 12:01:00,58.5,52.0,29.97,East,81,19.6,19.6,79,0.00,CLR,,0.00,WeatherDisplay:10.37,2013-05-21 10:01:00,
2013-05-21 12:06:00,58.5,52.0,29.97,NE,39,17.3,17.3,79,0.00,CLR,,0.00,WeatherDisplay:10.37,2013-05-21 10:06:00,
2013-05-21 12:11:00,58.4,51.6,29.97,ENE,67,18.4,18.4,78,0.00,CLR,,0.00,WeatherDisplay:10.37,2013-05-21 10:11:00,
2013-05-21 12:16:00,58.5,52.0,29.97,NNE,15,18.4,18.4,79,0.00,CLR,,0.00,WeatherDisplay:10.37,2013-05-21 10:16:00,
2013-05-21 12:21:00,58.5,52.4,29.96,NE,38,19.6,19.6,80,0.00,CLR,,0.00,WeatherDisplay:10.37,2013-05-21 10:21:00,
2013-05-21 12:26:00,58.5,52.4,29.96,NE,43,18.4,18.4,80,0.00,CLR,,0.00,WeatherDisplay:10.37,2013-05-21 10:26:00,
2013-05-21 12:31:00,58.5,52.0,29.95,NE,46,23.0,23.0,79,0.00,CLR,,0.00,WeatherDisplay:10.37,2013-05-21 10:31:00,
2013-05-21 12:36:00,58.5,52.0,29.95,NE,45,21.9,21.9,79,0.00,CLR,,0.00,WeatherDisplay:10.37,2013-05-21 10:36:00,
2013-05-21 12:41:00,58.6,52.1,29.95,NE,43,21.9,21.9,79,0.00,CLR,,0.00,WeatherDisplay:10.37,2013-05-21 10:41:00,
2013-05-21 12:46:00,59.0,52.5,29.94,NE,40,24.2,24.2,79,0.00,CLR,,0.00,WeatherDisplay:10.37,2013-05-21 10:46:00,
2013-05-21 12:51:00,59.4,52.9,29.93,NE,43,28.8,28.8,79,0.00,CLR,,0.00,WeatherDisplay:10.37,2013-05-21 10:51:00,
2013-05-21 12:56:00,59.5,52.6,29.94,NE,46,26.5,26.5,78,0.00,CLR,,0.00,WeatherDisplay:10.37,2013-05-21 10:56:00,
2013-05-21 13:01:00,59.4,52.5,29.94,ENE,64,20.7,20.7,78,0.00,CLR,,0.00,WeatherDisplay:10.37,2013-05-21 11:01:00,
2013-05-21 13:06:00,58.9,52.1,29.93,NE,36,23.0,23.0,78,0.00,CLR,,0.00,WeatherDisplay:10.37,2013-05-21 11:06:00,
2013-05-21 13:11:00,58.7,51.9,29.93,NE,37,26.5,26.5,78,0.00,CLR,,0.00,WeatherDisplay:10.37,2013-05-21 11:11:00,
2013-05-21 13:16:00,58.6,51.8,29.94,NNE,21,26.5,26.5,78,0.00,CLR,,0.00,WeatherDisplay:10.37,2013-05-21 11:16:00,
2013-05-21 13:21:00,58.7,52.2,29.93,NE,43,17.3,17.3,79,0.00,CLR,,0.00,WeatherDisplay:10.37,2013-05-21 11:21:00,
2013-05-21 13:26:00,58.8,51.6,29.92,ENE,67,21.9,21.9,77,0.00,CLR,,0.00,WeatherDisplay:10.37,2013-05-21 11:26:00,
2013-05-21 13:31:00,58.7,51.5,29.94,NE,36,23.0,23.0,77,0.00,CLR,,0.00,WeatherDisplay:10.37,2013-05-21 11:31:00,
2013-05-21 13:36:00,58.4,51.2,29.94,NE,38,21.9,21.9,77,0.00,CLR,,0.00,WeatherDisplay:10.37,2013-05-21 11:36:00,
2013-05-21 13:41:00,58.2,51.4,29.93,NE,53,24.2,24.2,78,0.00,CLR,,0.00,WeatherDisplay:10.37,2013-05-21 11:41:00,
2013-05-21 13:46:00,58.1,51.6,29.94,NNE,21,15.0,15.0,79,0.00,CLR,,0.00,WeatherDisplay:10.37,2013-05-21 11:46:00,
2013-05-21 13:51:00,58.1,51.3,29.94,North,4,15.0,15.0,78,0.00,CLR,,0.00,WeatherDisplay:10.37,2013-05-21 11:51:00,
2013-05-21 13:56:00,58.0,51.2,29.94,NNE,13,13.0,13.0,78,0.00,CLR,,0.00,WeatherDisplay:10.37,2013-05-21 11:56:00,
2013-05-21 14:01:00,57.9,51.4,29.93,NE,45,11.5,11.5,79,0.00,CLR,,0.00,WeatherDisplay:10.37,2013-05-21 12:01:00,
2013-05-21 14:06:00,57.9,50.7,29.93,NNE,30,16.1,16.1,77,0.00,CLR,,0.00,WeatherDisplay:10.37,2013-05-21 12:06:00,
2013-05-21 14:11:00,57.8,50.6,29.93,NNE,27,13.8,13.8,77,0.00,CLR,,0.00,WeatherDisplay:10.37,2013-05-21 12:11:00,
2013-05-21 14:16:00,57.8,50.3,29.93,NE,41,17.3,17.3,76,0.00,CLR,,0.00,WeatherDisplay:10.37,2013-05-21 12:16:00,
2013-05-21 14:21:00,57.8,50.3,29.92,NE,41,13.8,13.8,76,0.00,CLR,,0.00,WeatherDisplay:10.37,2013-05-21 12:21:00,
2013-05-21 14:26:00,57.8,50.3,29.92,North,11,19.6,19.6,76,0.00,CLR,,0.00,WeatherDisplay:10.37,2013-05-21 12:26:00,
2013-05-21 14:31:00,57.8,49.6,29.91,NE,56,20.7,20.7,74,0.00,CLR,,0.00,WeatherDisplay:10.37,2013-05-21 12:31:00,
2013-05-21 14:36:00,57.9,49.7,29.91,NE,40,18.4,18.4,74,0.00,CLR,,0.00,WeatherDisplay:10.37,2013-05-21 12:36:00,
2013-05-21 14:41:00,58.1,49.9,29.91,NE,39,16.1,16.1,74,0.00,CLR,,0.00,WeatherDisplay:10.37,2013-05-21 12:41:00,
2013-05-21 14:46:00,58.1,49.9,29.92,NNE,27,21.9,21.9,74,0.00,CLR,,0.00,WeatherDisplay:10.37,2013-05-21 12:46:00,
2013-05-21 14:51:00,58.1,49.9,29.91,NE,35,17.3,17.3,74,0.00,CLR,,0.00,WeatherDisplay:10.37,2013-05-21 12:51:00,
2013-05-21 14:56:00,58.1,49.9,29.91,NNE,20,23.0,23.0,74,0.00,CLR,,0.00,WeatherDisplay:10.37,2013-05-21 12:56:00,
2013-05-21 15:01:00,58.2,49.6,29.91,North,4,27.6,27.6,73,0.00,CLR,,0.00,WeatherDisplay:10.37,2013-05-21 13:01:00,
2013-05-21 15:06:00,58.1,49.1,29.92,NE,35,21.9,21.9,72,0.00,CLR,,0.00,WeatherDisplay:10.37,2013-05-21 13:06:00,
2013-05-21 15:11:00,58.1,48.7,29.92,NE,34,26.5,26.5,71,0.00,CLR,,0.00,WeatherDisplay:10.37,2013-05-21 13:11:00,
2013-05-21 15:16:00,58.1,48.7,29.93,North,4,11.5,11.5,71,0.00,CLR,,0.00,WeatherDisplay:10.37,2013-05-21 13:16:00,
2013-05-21 15:21:00,58.0,48.6,29.94,NE,44,19.6,19.6,71,0.00,CLR,,0.00,WeatherDisplay:10.37,2013-05-21 13:21:00,
2013-05-21 15:26:00,58.0,48.3,29.95,NNE,18,15.0,15.0,70,0.00,CLR,,0.00,WeatherDisplay:10.37,2013-05-21 13:26:00,
2013-05-21 15:31:00,58.0,48.3,29.96,NE,38,6.9,6.9,70,0.00,CLR,,0.00,WeatherDisplay:10.37,2013-05-21 13:31:00,
2013-05-21 15:36:00,58.0,48.6,29.96,NE,41,8.1,8.1,71,0.00,CLR,,0.00,WeatherDisplay:10.37,2013-05-21 13:36:00,
2013-05-21 15:41:00,57.8,48.8,29.95,NNE,21,9.2,9.2,72,0.00,CLR,,0.00,WeatherDisplay:10.37,2013-05-21 13:41:00,
2013-05-21 15:46:00,57.1,48.9,29.93,NNE,20,15.0,15.0,74,0.01,RA,,0.01,WeatherDisplay:10.37,2013-05-21 13:46:00,
2013-05-21 15:51:00,56.2,49.1,29.90,NNE,25,19.6,19.6,77,0.02,RA,,0.02,WeatherDisplay:10.37,2013-05-21 13:51:00,
2013-05-21 15:56:00,55.6,49.5,29.88,North,4,24.2,24.2,80,0.02,RA,,0.02,WeatherDisplay:10.37,2013-05-21 13:56:00,
2013-05-21 16:01:00,55.1,49.7,29.84,North,359,29.9,29.9,82,0.03,RA,,0.03,WeatherDisplay:10.37,2013-05-21 14:01:00,
2013-05-21 16:06:00,55.0,50.3,29.83,NE,52,34.5,34.5,84,0.03,RA,,0.03,WeatherDisplay:10.37,2013-05-21 14:06:00,
2013-05-21 16:11:00,55.1,50.0,29.84,NE,46,24.2,24.2,83,0.04,RA,,0.04,WeatherDisplay:10.37,2013-05-21 14:11:00,
2013-05-21 16:16:00,55.3,50.2,29.86,NNE,18,16.1,16.1,83,0.04,RA,,0.04,WeatherDisplay:10.37,2013-05-21 14:16:00,
2013-05-21 16:21:00,55.4,50.3,29.90,ENE,76,10.4,10.4,83,0.05,RA,,0.05,WeatherDisplay:10.37,2013-05-21 14:21:00,
2013-05-21 16:26:00,55.5,50.7,29.90,ESE,119,12.7,12.7,84,0.05,RA,,0.05,WeatherDisplay:10.37,2013-05-21 14:26:00,
2013-05-21 16:31:00,55.5,50.7,29.89,NE,55,15.0,15.0,84,0.05,,,0.05,WeatherDisplay:10.37,2013-05-21 14:31:00,
2013-05-21 16:36:00,55.7,50.6,29.86,North,4,26.5,26.5,83,0.05,CLR,,0.05,WeatherDisplay:10.37,2013-05-21 14:36:00,
2013-05-21 16:41:00,55.7,50.6,29.86,NE,51,20.7,20.7,83,0.05,CLR,,0.05,WeatherDisplay:10.37,2013-05-21 14:41:00,
2013-05-21 16:46:00,55.8,50.7,29.88,ENE,65,13.8,13.8,83,0.04,CLR,,0.05,WeatherDisplay:10.37,2013-05-21 14:46:00,
2013-05-21 16:51:00,55.8,50.7,29.87,NE,39,18.4,18.4,83,0.03,CLR,,0.05,WeatherDisplay:10.37,2013-05-21 14:51:00,
2013-05-21 16:56:00,55.9,50.8,29.86,ENE,64,21.9,21.9,83,0.03,,,0.05,WeatherDisplay:10.37,2013-05-21 14:56:00,
2013-05-21 17:01:00,55.9,50.8,29.85,North,359,27.6,27.6,83,0.02,,,0.05,WeatherDisplay:10.37,2013-05-21 15:01:00,
2013-05-21 17:06:00,56.0,51.2,29.85,North,359,18.4,18.4,84,0.02,,,0.05,WeatherDisplay:10.37,2013-05-21 15:06:00,
2013-05-21 17:11:00,56.0,50.9,29.84,North,354,21.9,21.9,83,0.01,,,0.05,WeatherDisplay:10.37,2013-05-21 15:11:00,
2013-05-21 17:16:00,56.1,51.0,29.84,NNW,332,13.8,13.8,83,0.01,,,0.05,WeatherDisplay:10.37,2013-05-21 15:16:00,
2013-05-21 17:21:00,56.2,51.1,29.84,NNE,30,20.7,20.7,83,0.00,,,0.05,WeatherDisplay:10.37,2013-05-21 15:21:00,
2013-05-21 17:26:00,56.2,51.1,29.84,NNE,12,20.7,20.7,83,0.00,,,0.05,WeatherDisplay:10.37,2013-05-21 15:26:00,
2013-05-21 17:31:00,56.3,51.2,29.85,NNE,14,16.1,16.1,83,0.00,,,0.05,WeatherDisplay:10.37,2013-05-21 15:31:00,
2013-05-21 17:36:00,56.3,51.2,29.85,NNE,25,13.8,13.8,83,0.00,,,0.05,WeatherDisplay:10.37,2013-05-21 15:36:00,
2013-05-21 17:41:00,56.2,50.8,29.84,NE,44,23.0,23.0,82,0.00,,,0.05,WeatherDisplay:10.37,2013-05-21 15:41:00,
2013-05-21 17:46:00,56.2,50.8,29.85,NE,48,19.6,19.6,82,0.00,,,0.05,WeatherDisplay:10.37,2013-05-21 15:46:00,
2013-05-21 17:51:00,56.2,50.8,29.86,NE,49,19.6,19.6,82,0.00,,,0.05,WeatherDisplay:10.37,2013-05-21 15:51:00,
2013-05-21 17:56:00,56.1,50.3,29.86,NE,50,19.6,19.6,81,0.00,,,0.05,WeatherDisplay:10.37,2013-05-21 15:56:00,
2013-05-21 18:01:00,56.2,50.4,29.86,North,10,19.6,19.6,81,0.00,,,0.05,WeatherDisplay:10.37,2013-05-21 16:01:00,
2013-05-21 18:06:00,56.1,50.3,29.87,NE,54,20.7,20.7,81,0.00,,,0.05,WeatherDisplay:10.37,2013-05-21 16:06:00,
2013-05-21 18:11:00,56.1,50.0,29.87,ENE,62,17.3,17.3,80,0.00,,,0.05,WeatherDisplay:10.37,2013-05-21 16:11:00,
2013-05-21 18:16:00,56.1,50.0,29.86,North,4,20.7,20.7,80,0.00,,,0.05,WeatherDisplay:10.37,2013-05-21 16:16:00,
2013-05-21 18:21:00,56.0,49.6,29.86,NE,37,23.0,23.0,79,0.00,,,0.05,WeatherDisplay:10.37,2013-05-21 16:21:00,
2013-05-21 18:26:00,55.8,49.0,29.86,NNE,31,13.8,13.8,78,0.00,,,0.05,WeatherDisplay:10.37,2013-05-21 16:26:00,
2013-05-21 18:31:00,55.8,49.0,29.87,North,4,11.5,11.5,78,0.00,,,0.05,WeatherDisplay:10.37,2013-05-21 16:31:00,
2013-05-21 18:36:00,55.6,48.5,29.87,North,354,19.6,19.6,77,0.00,,,0.05,WeatherDisplay:10.37,2013-05-21 16:36:00,
2013-05-21 18:41:00,55.6,48.5,29.87,NE,35,11.5,11.5,77,0.00,,,0.05,WeatherDisplay:10.37,2013-05-21 16:41:00,
2013-05-21 18:46:00,55.5,47.7,29.86,NNE,28,13.8,13.8,75,0.00,,,0.05,WeatherDisplay:10.37,2013-05-21 16:46:00,
2013-05-21 18:51:00,55.7,47.9,29.86,NNW,344,11.5,11.5,75,0.00,,,0.05,WeatherDisplay:10.37,2013-05-21 16:51:00,
2013-05-21 18:56:00,55.8,47.6,29.87,NNE,18,15.0,15.0,74,0.00,,,0.05,WeatherDisplay:10.37,2013-05-21 16:56:00,
2013-05-21 19:01:00,55.7,47.9,29.87,NNE,29,17.3,17.3,75,0.00,,,0.05,WeatherDisplay:10.37,2013-05-21 17:01:00,
2013-05-21 19:06:00,55.6,47.8,29.86,North,9,13.8,13.8,75,0.00,,,0.05,WeatherDisplay:10.37,2013-05-21 17:06:00,
2013-05-21 19:11:00,55.7,47.9,29.86,NE,43,19.6,19.6,75,0.00,,,0.05,WeatherDisplay:10.37,2013-05-21 17:11:00,
2013-05-21 19:16:00,55.6,48.2,29.86,NNE,15,16.1,16.1,76,0.00,,,0.05,WeatherDisplay:10.37,2013-05-21 17:16:00,
2013-05-21 19:21:00,55.4,48.3,29.86,NNE,24,26.5,26.5,77,0.00,,,0.05,WeatherDisplay:10.37,2013-05-21 17:21:00,
2013-05-21 19:26:00,55.4,48.3,29.87,NNE,22,23.0,23.0,77,0.01,RA,,0.06,WeatherDisplay:10.37,2013-05-21 17:26:00,
2013-05-21 19:31:00,55.4,48.3,29.87,North,359,19.6,19.6,77,0.01,RA,,0.06,WeatherDisplay:10.37,2013-05-21 17:31:00,
2013-05-21 19:36:00,55.2,48.1,29.88,NE,41,11.5,11.5,77,0.01,,,0.06,WeatherDisplay:10.37,2013-05-21 17:36:00,
2013-05-21 19:41:00,55.2,48.5,29.88,NNE,33,10.4,10.4,78,0.02,RA,,0.06,WeatherDisplay:10.37,2013-05-21 17:41:00,
2013-05-21 19:46:00,55.1,48.4,29.88,NE,37,17.0,17.0,78,0.02,RA,,0.06,WeatherDisplay:10.37,2013-05-21 17:46:00,
2013-05-21 19:51:00,54.9,48.2,29.88,NNE,21,11.5,11.5,78,0.02,,,0.06,WeatherDisplay:10.37,2013-05-21 17:51:00,
2013-05-21 19:56:00,54.7,48.3,29.89,NNE,33,11.5,11.5,79,0.02,CLR,,0.06,WeatherDisplay:10.37,2013-05-21 17:56:00,
2013-05-21 20:01:00,54.7,48.3,29.89,NNE,32,12.7,12.7,79,0.02,CLR,,0.06,WeatherDisplay:10.37,2013-05-21 18:01:00,
2013-05-21 20:06:00,54.6,48.2,29.90,NE,49,10.4,10.4,79,0.02,CLR,,0.06,WeatherDisplay:10.37,2013-05-21 18:06:00,
2013-05-21 20:11:00,54.6,48.2,29.90,NNE,31,11.5,11.5,79,0.02,CLR,,0.06,WeatherDisplay:10.37,2013-05-21 18:11:00,
2013-05-21 20:16:00,54.6,48.2,29.90,NE,34,11.5,11.5,79,0.02,RA,,0.07,WeatherDisplay:10.37,2013-05-21 18:16:00,
2013-05-21 20:21:00,54.7,47.6,29.90,NNE,21,9.2,9.2,77,0.02,RA,,0.07,WeatherDisplay:10.37,2013-05-21 18:21:00,
2013-05-21 20:26:00,54.5,47.8,29.90,NNE,12,10.4,10.4,78,0.02,CLR,,0.07,WeatherDisplay:10.37,2013-05-21 18:26:00,
2013-05-21 20:31:00,54.3,47.9,29.90,North,359,13.0,13.0,79,0.02,CLR,,0.07,WeatherDisplay:10.37,2013-05-21 18:31:00,
2013-05-21 20:36:00,54.2,47.8,29.90,North,354,13.0,13.0,79,0.02,CLR,,0.07,WeatherDisplay:10.37,2013-05-21 18:36:00,
2013-05-21 20:41:00,54.2,47.8,29.90,North,11,13.8,13.8,79,0.01,CLR,,0.07,WeatherDisplay:10.37,2013-05-21 18:41:00,
2013-05-21 20:46:00,54.4,48.0,29.91,NNW,347,13.0,13.0,79,0.01,CLR,,0.07,WeatherDisplay:10.37,2013-05-21 18:46:00,
2013-05-21 20:51:00,54.3,47.9,29.91,North,359,11.5,11.5,79,0.02,RA,,0.08,WeatherDisplay:10.37,2013-05-21 18:51:00,
2013-05-21 20:56:00,54.2,48.5,29.91,North,354,14.0,14.0,81,0.02,RA,,0.08,WeatherDisplay:10.37,2013-05-21 18:56:00,
2013-05-21 21:01:00,54.3,48.6,29.91,North,354,13.8,13.8,81,0.02,,,0.08,WeatherDisplay:10.37,2013-05-21 19:01:00,
2013-05-21 21:06:00,54.5,48.5,29.91,North,359,15.0,15.0,80,0.02,CLR,,0.08,WeatherDisplay:10.37,2013-05-21 19:06:00,
2013-05-21 21:11:00,54.6,48.2,29.91,NNW,344,17.3,17.3,79,0.02,CLR,,0.08,WeatherDisplay:10.37,2013-05-21 19:11:00,
2013-05-21 21:16:00,54.5,48.5,29.91,North,354,14.0,14.0,80,0.01,CLR,,0.08,WeatherDisplay:10.37,2013-05-21 19:16:00,
2013-05-21 21:21:00,54.6,48.6,29.91,North,359,17.3,17.3,80,0.01,CLR,,0.08,WeatherDisplay:10.37,2013-05-21 19:21:00,
2013-05-21 21:26:00,54.7,48.6,29.91,North,4,15.0,15.0,80,0.01,CLR,,0.08,WeatherDisplay:10.37,2013-05-21 19:26:00,
2013-05-21 21:31:00,54.8,48.4,29.91,North,4,15.0,15.0,79,0.01,CLR,,0.08,WeatherDisplay:10.37,2013-05-21 19:31:00,
2013-05-21 21:36:00,54.7,48.3,29.91,NNE,25,12.7,12.7,79,0.01,CLR,,0.08,WeatherDisplay:10.37,2013-05-21 19:36:00,
2013-05-21 21:41:00,54.9,48.2,29.91,North,8,15.0,15.0,78,0.01,CLR,,0.08,WeatherDisplay:10.37,2013-05-21 19:41:00,
2013-05-21 21:46:00,55.0,48.3,29.91,North,354,12.0,12.0,78,0.01,CLR,,0.08,WeatherDisplay:10.37,2013-05-21 19:46:00,
2013-05-21 21:51:00,55.0,48.3,29.91,NNE,13,12.7,12.7,78,0.00,CLR,,0.08,WeatherDisplay:10.37,2013-05-21 19:51:00,
2013-05-21 21:56:00,54.9,48.5,29.92,North,11,11.5,11.5,79,0.00,CLR,,0.08,WeatherDisplay:10.37,2013-05-21 19:56:00,
2013-05-21 22:01:00,55.1,49.0,29.92,NNE,17,14.0,14.0,80,0.00,CLR,,0.08,WeatherDisplay:10.37,2013-05-21 20:01:00,
2013-05-21 22:06:00,55.1,49.4,29.92,NNE,32,11.5,11.5,81,0.00,CLR,,0.08,WeatherDisplay:10.37,2013-05-21 20:06:00,
2013-05-21 22:11:00,55.1,49.4,29.92,North,359,13.8,13.8,81,0.00,CLR,,0.08,WeatherDisplay:10.37,2013-05-21 20:11:00,
2013-05-21 22:16:00,55.3,49.2,29.92,North,10,12.7,12.7,80,0.00,CLR,,0.08,WeatherDisplay:10.37,2013-05-21 20:16:00,
2013-05-21 22:21:00,55.2,49.5,29.92,North,4,13.8,13.8,81,0.00,CLR,,0.08,WeatherDisplay:10.37,2013-05-21 20:21:00,
2013-05-21 22:26:00,55.3,49.2,29.92,North,4,17.3,17.3,80,0.00,CLR,,0.08,WeatherDisplay:10.37,2013-05-21 20:26:00,
2013-05-21 22:31:00,55.4,49.3,29.93,North,4,12.7,12.7,80,0.00,CLR,,0.08,WeatherDisplay:10.37,2013-05-21 20:31:00,
2013-05-21 22:36:00,55.4,49.3,29.93,North,354,12.7,12.7,80,0.00,CLR,,0.08,WeatherDisplay:10.37,2013-05-21 20:36:00,
2013-05-21 22:41:00,55.4,49.3,29.93,NNE,21,11.0,11.0,80,0.00,CLR,,0.08,WeatherDisplay:10.37,2013-05-21 20:41:00,
2013-05-21 22:46:00,55.6,49.5,29.93,NNE,25,13.8,13.8,80,0.00,CLR,,0.08,WeatherDisplay:10.37,2013-05-21 20:46:00,
2013-05-21 22:51:00,55.7,49.6,29.93,NNE,21,10.4,10.4,80,0.00,CLR,,0.08,WeatherDisplay:10.37,2013-05-21 20:51:00,
2013-05-21 22:56:00,55.5,49.8,29.93,North,11,11.5,11.5,81,0.00,CLR,,0.08,WeatherDisplay:10.37,2013-05-21 20:56:00,
2013-05-21 23:01:00,55.2,50.1,29.93,NNE,26,11.5,11.5,83,0.00,CLR,,0.08,WeatherDisplay:10.37,2013-05-21 21:01:00,
2013-05-21 23:06:00,55.1,50.0,29.93,North,11,11.5,11.5,83,0.00,CLR,,0.08,WeatherDisplay:10.37,2013-05-21 21:06:00,
2013-05-21 23:11:00,55.1,50.0,29.93,North,9,12.7,12.7,83,0.00,CLR,,0.08,WeatherDisplay:10.37,2013-05-21 21:11:00,
2013-05-21 23:16:00,55.2,50.1,29.93,NNE,13,11.5,11.5,83,0.00,CLR,,0.08,WeatherDisplay:10.37,2013-05-21 21:16:00,
2013-05-21 23:21:00,55.1,50.0,29.93,North,4,12.7,12.7,83,0.00,CLR,,0.08,WeatherDisplay:10.37,2013-05-21 21:21:00,
2013-05-21 23:26:00,55.1,50.0,29.93,North,359,15.0,15.0,83,0.00,CLR,,0.08,WeatherDisplay:10.37,2013-05-21 21:26:00,
2013-05-21 23:31:00,55.3,49.9,29.93,NNW,346,12.7,12.7,82,0.00,CLR,,0.08,WeatherDisplay:10.37,2013-05-21 21:31:00,
2013-05-21 23:36:00,55.4,50.0,29.92,North,354,15.0,15.0,82,0.00,CLR,,0.08,WeatherDisplay:10.37,2013-05-21 21:36:00,
2013-05-21 23:41:00,55.4,50.0,29.93,North,354,12.0,12.0,82,0.00,CLR,,0.08,WeatherDisplay:10.37,2013-05-21 21:41:00,
2013-05-21 23:46:00,55.3,49.9,29.92,North,4,11.5,11.5,82,0.00,CLR,,0.08,WeatherDisplay:10.37,2013-05-21 21:46:00,
2013-05-21 23:51:00,55.1,50.0,29.93,NNW,335,9.2,9.2,83,0.00,CLR,,0.08,WeatherDisplay:10.37,2013-05-21 21:51:00,
2013-05-21 23:56:00,54.9,49.8,29.92,NNW,343,11.5,11.5,83,0.00,CLR,,0.08,WeatherDisplay:10.37,2013-05-21 21:56:00,